Time;durP1;ratioP1;P1;durP2;ratioP2;P2;SDS_P1;SDS_P2;PMS_P1;PMS_P2;Temp;Humidity;BMP_temperature;BMP_pressure;BME280_temperature;BME280_humidity;BME280_pressure;Samples;Min_cycle;Max_cycle;Signal;HPM_P1;HPM_P2
2021/06/19 00:05:25;;;;;;;17.13;10.45;;;;;;;18.14;63.69;92898.81;5031455;28;20155;-93
2021/06/19 00:08:25;;;;;;;;;;;;;;;;;;;;;
2021/06/19 00:11:28;;;;;;;;;;;;;;;;;;;;;
2021/06/19 00:15:05;;;;;;;15.70;10.43;;;;;;;18.36;64.35;92937.47;5030331;28;20150;-94
2021/06/19 00:21:26;;;;;;;21.23;10.80;;;;;;;17.92;64.52;92881.34;5016181;28;20045;-94
2021/06/19 00:24:25;;;;;;;20.20;10.82;;;;;;;17.95;64.95;92885.25;5016357;28;20033;-94
2021/06/19 00:27:52;;;;;;;19.15;10.82;;;;;;;18.02;64.98;92902.16;5022075;28;20129;-94
2021/06/19 00:30:59;;;;;;;23.63;11.68;;;;;;;18.11;65.15;92915.34;5004453;28;20059;-93
2021/06/19 00:34:37;;;;;;;;;;;;;;;;;;;;;
2021/06/19 00:37:39;;;;;;;17.83;11.85;;;;;;;17.94;65.69;92892.38;5027626;28;20056;-93
2021/06/19 00:40:27;;;;;;;23.25;11.02;;;;;;;17.99;65.67;92902.00;5000915;28;20072;-93
2021/06/19 00:43:32;;;;;;;19.85;10.30;;;;;;;17.93;65.61;92890.84;4997972;28;20076;-94
2021/06/19 00:46:47;;;;;;;18.15;10.85;;;;;;;17.95;65.41;92907.19;5021502;28;20053;-93
2021/06/19 00:50:08;;;;;;;;;;;;;;;;;;;;;
2021/06/19 00:53:35;;;;;;;;;;;;;;;;;;;;;
2021/06/19 00:56:32;;;;;;;;;;;;;;;;;;;;;
2021/06/19 00:59:42;;;;;;;;;;;;;;;;;;;;;
2021/06/19 01:02:56;;;;;;;21.05;10.93;;;;;;;17.60;66.36;92888.81;5025463;28;20049;-94
2021/06/19 01:05:57;;;;;;;22.77;10.80;;;;;;;17.65;65.87;92896.59;5036214;28;20045;-93
2021/06/19 01:08:56;;;;;;;;;;;;;;;;;;;;;
2021/06/19 01:12:23;;;;;;;;;;;;;;;;;;;;;
2021/06/19 01:15:29;;;;;;;18.80;10.77;;;;;;;17.82;65.93;92932.81;5045832;28;20090;-94
2021/06/19 01:18:50;;;;;;;;;;;;;;;;;;;;;
2021/06/19 01:22:00;;;;;;;;;;;;;;;;;;;;;
2021/06/19 01:24:58;;;;;;;;;;;;;;;;;;;;;
2021/06/19 01:31:36;;;;;;;19.60;11.20;;;;;;;17.37;66.72;92898.13;5035972;28;20581;-93
2021/06/19 01:34:41;;;;;;;;;;;;;;;;;;;;;
2021/06/19 01:37:54;;;;;;;20.60;11.63;;;;;;;17.67;66.83;92952.66;5032933;28;20041;-93
2021/06/19 01:43:45;;;;;;;22.05;11.18;;;;;;;17.42;66.44;92914.59;5030694;28;20132;-95
2021/06/19 01:46:56;;;;;;;18.52;11.38;;;;;;;17.46;66.81;92926.09;5014956;28;20057;-93
2021/06/19 01:50:00;;;;;;;18.70;10.80;;;;;;;17.62;66.89;92957.31;5021590;28;20048;-94
2021/06/19 01:52:43;;;;;;;18.05;11.30;;;;;;;17.20;67.46;92905.03;4987207;28;20094;-94
2021/06/19 01:55:35;;;;;;;;;;;;;;;;;;;;;
2021/06/19 01:58:53;;;;;;;18.77;10.43;;;;;;;17.25;67.37;92906.72;5040496;28;20071;-93
2021/06/19 02:02:03;;;;;;;21.73;11.52;;;;;;;17.51;67.45;92961.41;5027234;28;20148;-92
2021/06/19 02:05:45;;;;;;;;;;;;;;;;;;;;;
2021/06/19 02:12:23;;;;;;;18.70;11.63;;;;;;;17.13;67.42;92923.25;5056910;28;20132;-95
2021/06/19 02:15:13;;;;;;;;;;;;;;;17.41;67.50;92967.84;5039673;28;20117;-93
2021/06/19 02:17:51;;;;;;;19.13;11.63;;;;;;;17.06;68.12;92915.78;5039528;28;19921;-94
2021/06/19 02:20:54;;;;;;;20.25;11.80;;;;;;;17.04;68.27;92920.66;5040084;28;20095;-92
2021/06/19 02:24:11;;;;;;;;;;;;;;;;;;;;;
2021/06/19 02:33:56;;;;;;;20.38;12.00;;;;;;;17.03;68.58;92916.44;5033541;28;20104;-94
2021/06/19 02:37:24;;;;;;;;;;;;;;;;;;;;;
2021/06/19 02:40:18;;;;;;;19.83;12.20;;;;;;;17.03;68.60;92910.38;5034366;28;20045;-94
2021/06/19 02:43:30;;;;;;;;;;;;;;;;;;;;;
2021/06/19 02:50:15;;;;;;;;;;;;;;;;;;;;;
2021/06/19 02:53:25;;;;;;;20.50;11.70;;;;;;;17.33;68.78;92956.19;5020930;28;20485;-91
2021/06/19 02:59:39;;;;;;;20.73;12.88;;;;;;;16.98;69.01;92905.25;5019940;28;20041;-94
2021/06/19 03:02:57;;;;;;;23.77;12.48;;;;;;;17.11;69.22;92933.34;5017368;28;20049;-92
2021/06/19 03:06:08;;;;;;;19.08;12.00;;;;;;;17.35;69.02;92966.47;5012632;28;20056;-94
2021/06/19 03:09:22;;;;;;;23.45;12.48;;;;;;;17.08;68.86;92923.41;4992092;28;20049;-92
2021/06/19 03:13:06;;;;;;;19.52;12.50;;;;;;;17.15;69.09;92925.59;5029744;28;20128;-94
2021/06/19 03:19:16;;;;;;;;;;;;;;;;;;;;;
2021/06/19 03:25:18;;;;;;;20.08;11.90;;;;;;;17.40;69.12;92947.75;5039034;28;20056;-93
2021/06/19 03:31:55;;;;;;;23.50;12.07;;;;;;;17.23;69.27;92912.34;5035299;28;20080;-93
2021/06/19 03:35:23;;;;;;;19.33;12.73;;;;;;;17.32;69.15;92927.41;5022159;28;20093;-93
2021/06/19 03:38:49;;;;;;;19.85;12.63;;;;;;;17.47;68.68;92945.38;5028677;28;20049;-93
2021/06/19 03:41:50;;;;;;;21.48;12.60;;;;;;;17.38;68.45;92936.72;5038220;28;20053;-93
2021/06/19 03:44:58;;;;;;;23.85;12.75;;;;;;;17.21;68.46;92903.94;5057559;28;20041;-94
2021/06/19 03:51:16;;;;;;;21.30;11.85;;;;;;;17.67;69.02;92935.97;5008487;28;20046;-94
2021/06/19 03:54:36;;;;;;;;;;;;;;;;;;;;;
2021/06/19 03:57:43;;;;;;;;;;;;;;;;;;;;;
2021/06/19 04:00:38;;;;;;;24.35;13.68;;;;;;;17.59;68.05;92900.50;5039758;28;20076;-94
2021/06/19 04:03:21;;;;;;;;;;;;;;;;;;;;;
2021/06/19 04:06:32;;;;;;;;;;;;;;;;;;;;;
2021/06/19 04:09:36;;;;;;;26.48;13.60;;;;;;;17.87;68.05;92937.91;5038143;28;20061;-95
2021/06/19 04:13:02;;;;;;;25.30;12.52;;;;;;;17.84;67.61;92921.91;5017833;28;20045;-91
2021/06/19 04:16:38;;;;;;;;;;;;;;;;;;;;;
2021/06/19 04:19:17;;;;;;;23.75;12.70;;;;;;;17.94;67.41;92910.94;5051558;28;20053;-94
2021/06/19 04:21:51;;;;;;;;;;;;;;;18.38;67.08;92961.78;5000300;28;20045;-94
2021/06/19 04:24:52;;;;;;;23.70;12.65;;;;;;;18.30;66.30;92944.03;5021928;28;20417;-94
2021/06/19 04:27:45;;;;;;;22.55;12.65;;;;;;;18.24;66.07;92918.84;5022977;28;20103;-94
2021/06/19 04:31:04;;;;;;;;;;;;;;;;;;;;;
2021/06/19 04:34:16;;;;;;;21.40;12.85;;;;;;;18.73;65.54;92961.50;5054911;28;20085;-94
2021/06/19 04:37:12;;;;;;;24.92;13.15;;;;;;;18.64;65.67;92942.22;5026866;28;20049;-93
2021/06/19 04:40:52;;;;;;;;;;;;;;;;;;;;;
2021/06/19 04:47:15;;;;;;;;;;;;;;;;;;;;;
2021/06/19 04:50:43;;;;;;;27.42;13.07;;;;;;;18.93;67.33;92922.81;5041394;28;20512;-94
2021/06/19 04:53:30;;;;;;;20.35;11.90;;;;;;;19.12;66.45;92946.22;5004583;28;20050;-94
2021/06/19 05:00:12;;;;;;;21.17;12.55;;;;;;;19.07;66.77;92910.03;5057515;28;20120;-93
2021/06/19 05:03:33;;;;;;;;;;;;;;;;;;;;;
2021/06/19 05:06:39;;;;;;;19.98;11.98;;;;;;;19.34;66.87;92932.53;5056629;28;20124;-94
2021/06/19 05:13:18;;;;;;;23.13;13.07;;;;;;;19.16;66.67;92867.47;5071613;28;20124;-94
2021/06/19 05:16:16;;;;;;;24.30;13.35;;;;;;;19.26;66.50;92848.47;5064476;28;20040;-92
2021/06/19 05:23:11;;;;;;;;;;;;;;;;;;;;;
2021/06/19 05:28:06;;;;;;;;;;;;;;;;;;;;;
2021/06/19 06:10:35;;;;;;;;;;;;;;;;;;;;;
2021/06/19 06:49:04;;;;;;;19.60;11.73;;;;;;;27.18;45.19;92906.91;5100100;27;20213;-78
2021/06/19 06:51:35;;;;;;;19.08;11.70;;;;;;;26.19;45.87;92910.66;5080991;28;20439;-79
2021/06/19 06:54:01;;;;;;;22.95;11.35;;;;;;;25.43;46.11;92911.19;5094767;28;20451;-78
2021/06/19 06:56:26;;;;;;;18.20;10.95;;;;;;;25.14;47.75;92921.59;5090859;28;20032;-80
2021/06/19 06:58:52;;;;;;;22.85;12.27;;;;;;;25.33;46.38;92926.81;5093960;28;20021;-79
2021/06/19 07:01:17;;;;;;;21.60;11.63;;;;;;;24.72;49.61;92926.09;5087851;28;20140;-76
2021/06/19 07:03:43;;;;;;;17.50;12.02;;;;;;;24.04;52.43;92927.06;5087275;28;20035;-79
2021/06/19 07:06:09;;;;;;;23.83;13.65;;;;;;;24.27;54.12;92929.66;5089691;28;20055;-77
2021/06/19 07:08:35;;;;;;;21.52;12.23;;;;;;;24.27;52.05;92941.16;5086937;28;20112;-77
2021/06/19 07:11:01;;;;;;;19.13;11.88;;;;;;;24.45;48.08;92929.91;5085899;28;20036;-77
2021/06/19 07:13:26;;;;;;;21.00;12.20;;;;;;;24.49;48.62;92936.88;5089068;28;20049;-79
2021/06/19 07:15:52;;;;;;;22.38;11.63;;;;;;;24.52;48.63;92936.19;5079541;28;20077;-78
2021/06/19 07:18:18;;;;;;;23.40;12.00;;;;;;;24.48;48.15;92934.59;5087562;28;20096;-77
2021/06/19 07:20:44;;;;;;;21.77;13.13;;;;;;;24.79;51.58;92933.44;5085659;28;20039;-78
2021/06/19 07:23:09;;;;;;;19.67;11.93;;;;;;;24.24;49.79;92938.41;5087571;28;20045;-78
2021/06/19 07:25:35;;;;;;;29.98;13.57;;;;;;;24.23;49.48;92932.31;5088048;28;20045;-79
2021/06/19 07:28:01;;;;;;;21.50;12.15;;;;;;;24.45;48.14;92930.69;5092746;28;20529;-81
2021/06/19 07:30:27;;;;;;;22.42;11.93;;;;;;;24.69;48.13;92924.13;5093762;28;20063;-79
2021/06/19 07:32:53;;;;;;;20.08;11.80;;;;;;;24.18;48.98;92929.16;5094713;28;20127;-78
2021/06/19 07:35:19;;;;;;;35.63;16.27;;;;;;;24.04;57.53;92929.72;5094478;28;20032;-78
2021/06/19 07:37:45;;;;;;;25.73;15.70;;;;;;;24.14;56.70;92920.31;5091001;28;20540;-80
2021/06/19 07:40:11;;;;;;;26.80;15.38;;;;;;;23.91;56.91;92918.44;5074069;28;20043;-79
2021/06/19 07:42:37;;;;;;;23.75;15.13;;;;;;;23.94;56.23;92914.31;5092778;28;20028;-79
2021/06/19 07:45:05;;;;;;;25.13;14.57;;;;;;;23.90;57.30;92915.00;5095408;28;20105;-79
2021/06/19 07:47:31;;;;;;;21.50;14.05;;;;;;;23.66;56.37;92916.16;5102267;27;20043;-78
2021/06/19 07:49:56;;;;;;;26.02;15.35;;;;;;;23.66;57.91;92910.00;5114775;28;20035;-78
2021/06/19 07:52:22;;;;;;;26.35;15.60;;;;;;;23.95;56.05;92908.59;5129714;28;20059;-78
2021/06/19 07:54:49;;;;;;;22.88;14.40;;;;;;;24.16;56.78;92894.78;5124936;27;20043;-78
2021/06/19 07:57:14;;;;;;;27.75;14.88;;;;;;;24.02;55.26;92897.22;5121432;28;20030;-78
2021/06/19 07:59:40;;;;;;;24.27;14.23;;;;;;;24.12;56.20;92899.28;5114883;28;20032;-79
2021/06/19 08:02:06;;;;;;;23.27;14.75;;;;;;;23.67;55.55;92901.66;5116765;28;20035;-78
2021/06/19 08:04:33;;;;;;;26.17;14.98;;;;;;;23.65;57.01;92897.81;5109617;28;20095;-80
2021/06/19 08:06:59;;;;;;;25.83;15.25;;;;;;;24.09;55.12;92886.63;5109973;28;20074;-80
2021/06/19 08:09:25;;;;;;;22.92;15.75;;;;;;;23.34;58.02;92894.22;5111545;28;20039;-79
2021/06/19 08:11:51;;;;;;;25.13;15.30;;;;;;;23.56;58.60;92890.03;5074743;28;20421;-79
2021/06/19 08:14:17;;;;;;;24.90;14.70;;;;;;;23.61;58.30;92889.72;5109142;28;20743;-79
2021/06/19 08:16:48;;;;;;;21.17;13.85;;;;;;;23.72;57.94;92889.88;5113957;28;20515;-79
2021/06/19 08:28:47;;;;;;;24.73;14.63;;;;;;;23.99;57.31;92887.25;4881025;22;20636;-79
2021/06/19 08:31:12;;;;;;;23.98;15.00;;;;;;;24.52;56.58;92895.28;5044963;28;20048;-79
2021/06/19 08:33:38;;;;;;;24.48;13.45;;;;;;;24.66;55.67;92887.41;5058095;28;20033;-79
2021/06/19 08:36:04;;;;;;;24.45;14.13;;;;;;;24.18;54.78;92891.72;5038872;28;20041;-79
2021/06/19 08:38:30;;;;;;;24.85;14.73;;;;;;;24.19;56.77;92886.00;5026934;28;20033;-79
2021/06/19 08:40:57;;;;;;;24.70;15.00;;;;;;;24.51;57.65;92888.34;5038024;28;20040;-79
2021/06/19 08:43:22;;;;;;;27.63;15.77;;;;;;;24.42;57.42;92877.91;5046512;28;20029;-79
2021/06/19 08:45:50;;;;;;;25.05;15.00;;;;;;;24.44;56.34;92882.91;5059754;28;20044;-79
2021/06/19 08:48:18;;;;;;;27.10;15.50;;;;;;;24.11;57.55;92887.03;5049386;28;20034;-79
2021/06/19 08:50:45;;;;;;;24.65;15.77;;;;;;;24.21;56.73;92877.63;5011911;28;20514;-79
2021/06/19 08:53:11;;;;;;;27.27;15.75;;;;;;;24.27;55.86;92876.97;5021851;28;20094;-79
2021/06/19 08:55:37;;;;;;;22.23;14.07;;;;;;;24.31;55.49;92877.75;5041563;28;20116;-79
2021/06/19 08:58:04;;;;;;;31.92;15.18;;;;;;;24.51;56.00;92880.34;5046400;28;20049;-79
2021/06/19 09:00:30;;;;;;;24.95;14.85;;;;;;;24.62;55.81;92870.53;5022166;28;20080;-80
2021/06/19 09:02:56;;;;;;;26.45;15.07;;;;;;;24.33;56.61;92880.06;5041927;28;20033;-79
2021/06/19 09:05:29;;;;;;;22.25;14.82;;;;;;;24.62;56.87;92875.88;5014608;28;20364;-79
2021/06/19 09:07:57;;;;;;;26.15;15.60;;;;;;;24.79;55.63;92879.91;5037366;28;20037;-79
2021/06/19 09:10:29;;;;;;;37.95;16.30;;;;;;;24.57;56.10;92873.53;5022480;28;20171;-79
2021/06/19 09:13:14;;;;;;;24.30;14.85;;;;;;;24.42;56.45;92882.50;5041566;28;20052;-79
2021/06/19 09:15:45;;;;;;;31.20;16.20;;;;;;;24.49;56.29;92874.56;5041002;28;20029;-79
2021/06/19 09:18:19;;;;;;;25.63;15.57;;;;;;;24.54;55.73;92868.88;5039891;28;20045;-79
2021/06/19 09:20:54;;;;;;;25.98;15.65;;;;;;;24.89;54.70;92871.22;5017304;28;20590;-79
2021/06/19 09:23:28;;;;;;;25.10;14.60;;;;;;;24.98;54.18;92865.56;5042714;28;20029;-81
2021/06/19 09:26:25;;;;;;;31.70;15.45;;;;;;;24.98;53.24;92870.16;5039261;28;20059;-79
2021/06/19 09:29:07;;;;;;;29.52;15.27;;;;;;;25.01;54.32;92864.06;5011801;28;20053;-80
2021/06/19 09:31:53;;;;;;;25.83;15.52;;;;;;;24.93;53.78;92863.22;5012791;28;20068;-80
2021/06/19 09:34:21;;;;;;;27.42;15.68;;;;;;;25.03;53.50;92867.91;5041657;28;20064;-79
2021/06/19 09:36:51;;;;;;;23.52;14.65;;;;;;;25.13;53.31;92864.56;5043134;28;20037;-79
2021/06/19 09:39:21;;;;;;;25.40;16.10;;;;;;;24.85;53.72;92867.72;5025575;28;20108;-80
2021/06/19 09:41:52;;;;;;;23.83;15.13;;;;;;;24.39;54.92;92853.78;5042750;28;20025;-79
2021/06/19 09:44:48;;;;;;;25.42;14.60;;;;;;;24.68;54.32;92853.03;5027761;28;20030;-79
2021/06/19 09:47:17;;;;;;;24.60;14.77;;;;;;;24.68;53.99;92850.34;5047502;28;20041;-80
2021/06/19 09:49:47;;;;;;;24.73;14.05;;;;;;;24.52;53.96;92860.47;5026934;28;20402;-79
2021/06/19 09:52:13;;;;;;;31.52;14.00;;;;;;;24.65;53.58;92848.38;5053193;28;20028;-80
2021/06/19 09:54:40;;;;;;;26.05;14.75;;;;;;;24.57;53.69;92851.38;5041916;28;20067;-80
2021/06/19 09:57:09;;;;;;;26.90;14.43;;;;;;;24.36;53.99;92841.13;5043065;28;20030;-80
2021/06/19 09:59:37;;;;;;;25.48;14.35;;;;;;;24.38;54.48;92847.66;5042915;28;20079;-80
2021/06/19 10:02:15;;;;;;;27.05;14.85;;;;;;;24.84;53.52;92850.13;5044656;28;20042;-80
2021/06/19 10:04:42;;;;;;;20.23;14.25;;;;;;;24.92;52.79;92850.97;5040745;28;20128;-80
2021/06/19 10:07:08;;;;;;;26.95;13.85;;;;;;;25.04;50.85;92852.59;5039813;28;20093;-81
2021/06/19 10:09:34;;;;;;;24.05;12.75;;;;;;;25.09;52.45;92850.38;5022995;28;20612;-81
2021/06/19 10:12:01;;;;;;;22.05;12.20;;;;;;;25.47;47.37;92843.09;5020877;28;20041;-81
2021/06/19 10:14:27;;;;;;;18.90;11.10;;;;;;;25.87;46.68;92844.19;5046142;28;20041;-83
2021/06/19 10:16:55;;;;;;;19.88;11.40;;;;;;;26.02;45.38;92833.53;5029162;28;20055;-82
2021/06/19 10:19:23;;;;;;;21.58;11.65;;;;;;;26.31;46.19;92823.72;5037343;28;20112;-80
2021/06/19 10:21:51;;;;;;;23.45;12.68;;;;;;;26.76;45.06;92826.97;5030316;28;20048;-80
2021/06/19 10:24:20;;;;;;;20.52;12.85;;;;;;;25.78;48.24;92814.19;5015028;28;20485;-79
2021/06/19 10:26:46;;;;;;;19.33;13.27;;;;;;;25.97;47.37;92821.25;5033593;28;20065;-79
2021/06/19 10:29:13;;;;;;;20.58;12.27;;;;;;;25.73;47.26;92830.63;5026231;28;20038;-81
2021/06/19 10:31:42;;;;;;;23.48;12.68;;;;;;;26.32;46.73;92826.03;5030997;28;20029;-80
2021/06/19 10:34:38;;;;;;;21.15;12.63;;;;;;;25.38;48.11;92829.22;5016718;28;20041;-79
2021/06/19 10:37:08;;;;;;;18.60;12.60;;;;;;;25.79;47.18;92829.16;5018798;28;20117;-78
2021/06/19 10:39:38;;;;;;;20.30;12.52;;;;;;;25.87;47.51;92825.41;5012860;28;20037;-80
2021/06/19 10:42:05;;;;;;;25.33;13.70;;;;;;;25.85;47.56;92824.97;5029767;28;20159;-79
2021/06/19 10:44:49;;;;;;;19.88;12.98;;;;;;;25.83;47.42;92829.94;5030001;28;20060;-79
2021/06/19 10:47:26;;;;;;;21.88;13.05;;;;;;;25.58;47.57;92827.09;5028265;28;20026;-78
2021/06/19 10:49:53;;;;;;;18.23;12.85;;;;;;;25.94;47.13;92828.13;5005956;28;20038;-79
2021/06/19 10:52:38;;;;;;;19.23;11.38;;;;;;;25.77;47.06;92823.38;5018188;28;20087;-80
2021/06/19 10:55:10;;;;;;;23.95;14.60;;;;;;;26.53;46.76;92819.19;5035769;28;20060;-80
2021/06/19 10:57:43;;;;;;;20.52;12.98;;;;;;;26.10;45.70;92817.09;5038998;28;20044;-79
2021/06/19 11:00:29;;;;;;;22.02;12.82;;;;;;;26.38;46.36;92827.19;5008910;28;20033;-78
2021/06/19 11:02:57;;;;;;;20.17;12.30;;;;;;;26.12;47.30;92824.75;5029062;28;20116;-78
2021/06/19 11:05:44;;;;;;;20.23;12.60;;;;;;;26.06;46.96;92829.72;5022273;28;20033;-77
2021/06/19 11:08:19;;;;;;;17.30;11.35;;;;;;;26.24;42.13;92829.81;5025679;28;20036;-77
2021/06/19 11:10:48;;;;;;;20.70;12.40;;;;;;;26.21;45.99;92825.22;5017045;28;20101;-77
2021/06/19 11:13:33;;;;;;;21.35;11.80;;;;;;;26.30;44.66;92828.31;5024167;28;20033;-77
2021/06/19 11:16:26;;;;;;;24.90;11.52;;;;;;;27.17;44.91;92826.66;5026802;28;20042;-78
2021/06/19 11:18:52;;;;;;;21.92;12.25;;;;;;;27.62;43.97;92835.91;5027026;28;20029;-78
2021/06/19 11:21:18;;;;;;;21.42;12.60;;;;;;;27.77;43.69;92842.06;5028064;28;20029;-77
2021/06/19 11:23:59;;;;;;;18.23;11.90;;;;;;;27.00;44.81;92831.63;5026463;28;20036;-79
2021/06/19 11:26:53;;;;;;;23.90;13.93;;;;;;;26.84;43.70;92828.53;5023218;28;20045;-79
2021/06/19 11:29:41;;;;;;;19.40;12.50;;;;;;;26.55;46.81;92833.06;5030989;28;20034;-79
2021/06/19 11:32:27;;;;;;;26.48;12.32;;;;;;;26.87;46.73;92821.63;5031591;28;20099;-79
2021/06/19 11:35:00;;;;;;;23.55;13.88;;;;;;;26.61;47.65;92828.84;5025975;28;20488;-79
2021/06/19 11:37:53;;;;;;;22.67;13.82;;;;;;;26.66;45.77;92825.00;5028417;28;20482;-79
2021/06/19 11:40:29;;;;;;;21.23;13.43;;;;;;;26.49;47.49;92829.16;5037848;28;20037;-79
2021/06/19 11:42:55;;;;;;;22.92;13.70;;;;;;;26.52;45.76;92823.03;5041756;28;20045;-79
2021/06/19 11:45:21;;;;;;;19.45;12.20;;;;;;;26.12;47.84;92828.22;5038878;28;20033;-78
2021/06/19 11:48:02;;;;;;;20.42;12.50;;;;;;;26.00;46.99;92830.44;5037192;28;20671;-79
2021/06/19 11:50:33;;;;;;;19.07;12.80;;;;;;;26.36;46.74;92836.75;5019341;28;20064;-79
2021/06/19 11:53:35;;;;;;;20.33;13.25;;;;;;;26.10;46.69;92835.13;5004494;28;20312;-79
2021/06/19 11:56:15;;;;;;;20.42;13.30;;;;;;;26.46;45.78;92833.38;5010357;28;20030;-78
2021/06/19 11:58:55;;;;;;;22.17;12.70;;;;;;;26.27;46.33;92829.06;5046986;28;20491;-78
2021/06/19 12:01:38;;;;;;;20.25;12.98;;;;;;;25.95;47.26;92832.34;5046291;28;20029;-78
2021/06/19 12:04:16;;;;;;;24.05;13.60;;;;;;;25.90;49.19;92827.31;5046722;28;20037;-78
2021/06/19 12:06:50;;;;;;;23.10;13.70;;;;;;;26.47;47.50;92826.06;5047021;28;20040;-79
2021/06/19 12:09:25;;;;;;;18.88;13.05;;;;;;;27.00;46.21;92823.56;5037110;28;20053;-78
2021/06/19 12:11:56;;;;;;;18.83;12.73;;;;;;;26.75;45.77;92820.84;5055999;28;20041;-78
2021/06/19 12:14:21;;;;;;;25.75;14.10;;;;;;;26.69;46.44;92818.91;5010162;28;20026;-78
2021/06/19 12:16:52;;;;;;;26.33;14.13;;;;;;;26.63;47.76;92815.81;5004889;28;20037;-78
2021/06/19 12:19:20;;;;;;;23.58;14.23;;;;;;;26.41;47.76;92812.25;4993176;28;20380;-78
2021/06/19 12:21:46;;;;;;;20.92;14.00;;;;;;;26.93;47.59;92815.50;5021075;28;20056;-79
2021/06/19 12:24:24;;;;;;;21.92;14.23;;;;;;;27.13;46.75;92817.81;5032886;28;20517;-78
2021/06/19 12:26:59;;;;;;;20.83;13.80;;;;;;;27.03;46.39;92824.72;5022805;28;20053;-78
2021/06/19 12:29:32;;;;;;;27.20;13.18;;;;;;;26.71;46.88;92822.75;5032766;28;20111;-77
2021/06/19 12:31:58;;;;;;;25.65;13.68;;;;;;;26.67;47.40;92821.94;5034464;28;20029;-79
2021/06/19 12:34:26;;;;;;;23.70;14.30;;;;;;;26.37;46.98;92820.28;5044253;28;20040;-79
2021/06/19 12:36:53;;;;;;;23.77;14.55;;;;;;;26.44;47.97;92818.78;5050713;28;20042;-78
2021/06/19 12:39:24;;;;;;;24.50;14.07;;;;;;;26.46;47.16;92814.56;5040189;28;20079;-79
2021/06/19 12:41:49;;;;;;;24.08;13.68;;;;;;;26.85;46.69;92810.50;5040663;28;20044;-78
2021/06/19 12:44:15;;;;;;;20.23;13.70;;;;;;;26.98;47.13;92819.75;5044934;28;20045;-79
2021/06/19 12:46:42;;;;;;;22.38;13.48;;;;;;;26.95;47.21;92815.91;5034567;28;20055;-78
2021/06/19 12:49:07;;;;;;;21.40;13.32;;;;;;;26.92;46.86;92813.19;5037059;28;20044;-78
2021/06/19 12:51:36;;;;;;;25.65;14.52;;;;;;;26.28;47.64;92819.88;5036991;28;20045;-78
2021/06/19 12:54:15;;;;;;;23.50;14.13;;;;;;;26.92;47.92;92818.56;5035539;28;20037;-79
2021/06/19 12:57:03;;;;;;;22.60;14.50;;;;;;;26.74;47.45;92808.53;5035465;28;20033;-78
2021/06/19 12:59:31;;;;;;;20.92;14.05;;;;;;;27.03;46.90;92813.22;5034409;28;20029;-79
2021/06/19 13:02:04;;;;;;;23.45;14.05;;;;;;;26.88;46.28;92812.41;5038742;28;20048;-81
2021/06/19 13:04:30;;;;;;;23.35;13.60;;;;;;;26.75;46.20;92798.56;5039588;28;20033;-80
2021/06/19 13:07:03;;;;;;;24.92;14.15;;;;;;;27.08;46.89;92800.16;5046087;28;20051;-80
2021/06/19 13:12:54;;;;;;;23.77;15.18;;;;;;;26.50;46.87;92798.47;5005601;28;20045;-80
2021/06/19 13:15:20;;;;;;;23.05;14.93;;;;;;;26.59;45.75;92790.84;5018594;28;20229;-80
2021/06/19 13:18:14;;;;;;;22.90;14.68;;;;;;;26.89;45.40;92795.16;5018022;28;20647;-81
2021/06/19 13:20:40;;;;;;;25.20;14.80;;;;;;;27.15;45.91;92794.78;5016040;28;20050;-81
2021/06/19 13:23:22;;;;;;;23.63;13.43;;;;;;;27.15;44.97;92788.66;4993371;28;20071;-79
2021/06/19 13:25:54;;;;;;;19.45;13.23;;;;;;;27.63;45.87;92796.38;5004611;28;20101;-80
2021/06/19 13:28:23;;;;;;;22.60;13.18;;;;;;;27.38;44.10;92797.16;5028162;28;20033;-82
2021/06/19 13:31:12;;;;;;;23.92;13.95;;;;;;;27.53;43.04;92797.91;5033030;28;20120;-80
2021/06/19 13:33:55;;;;;;;20.35;13.20;;;;;;;27.42;42.92;92797.13;5036173;28;20032;-79
2021/06/19 13:36:45;;;;;;;19.70;13.30;;;;;;;27.62;41.70;92795.59;5033264;28;20037;-84
2021/06/19 13:39:35;;;;;;;22.27;13.25;;;;;;;27.67;42.93;92786.34;5022530;28;20033;-79
2021/06/19 13:42:15;;;;;;;19.75;14.02;;;;;;;26.98;43.99;92795.56;5040237;28;20040;-80
2021/06/19 13:44:49;;;;;;;26.65;13.98;;;;;;;26.94;43.44;92786.72;5037415;28;20041;-79
2021/06/19 13:47:14;;;;;;;26.77;14.65;;;;;;;27.21;42.93;92787.16;5042929;28;20025;-79
2021/06/19 13:49:40;;;;;;;21.02;13.95;;;;;;;27.12;44.41;92790.19;5047384;28;20052;-77
2021/06/19 13:52:08;;;;;;;23.02;13.27;;;;;;;27.38;44.67;92789.09;5049046;28;20061;-78
2021/06/19 13:54:43;;;;;;;22.17;13.98;;;;;;;27.32;44.57;92782.56;5045908;28;20049;-79
2021/06/19 13:57:28;;;;;;;24.67;14.30;;;;;;;27.19;45.28;92778.69;5035669;28;20052;-79
2021/06/19 13:59:54;;;;;;;22.25;15.20;;;;;;;27.12;44.42;92779.44;5054917;28;20057;-79
2021/06/19 14:02:20;;;;;;;24.20;15.75;;;;;;;27.51;43.79;92765.25;5029750;28;20037;-79
2021/06/19 14:04:46;;;;;;;24.85;15.40;;;;;;;27.36;44.23;92769.13;5046771;28;20036;-79
2021/06/19 14:07:11;;;;;;;22.95;15.88;;;;;;;27.72;43.00;92777.91;5026445;28;20064;-79
2021/06/19 14:09:37;;;;;;;35.08;15.98;;;;;;;27.79;43.95;92782.53;5042284;28;20037;-79
2021/06/19 14:12:05;;;;;;;27.42;15.20;;;;;;;27.98;44.05;92771.34;5025001;28;20045;-76
2021/06/19 14:14:31;;;;;;;25.23;14.95;;;;;;;28.26;43.35;92767.03;5039608;28;20033;-79
2021/06/19 14:17:15;;;;;;;28.90;14.20;;;;;;;27.57;44.33;92765.66;5024057;28;20076;-80
2021/06/19 14:19:41;;;;;;;23.05;14.18;;;;;;;27.40;44.51;92751.84;5042265;28;20052;-80
2021/06/19 14:22:06;;;;;;;22.65;14.85;;;;;;;27.00;46.28;92758.34;5047493;28;20076;-80
2021/06/19 14:24:32;;;;;;;23.08;15.10;;;;;;;27.47;45.73;92756.44;5027957;28;20029;-79
2021/06/19 14:27:06;;;;;;;26.55;14.38;;;;;;;27.61;46.53;92764.50;5020799;28;20056;-79
2021/06/19 14:29:34;;;;;;;25.08;13.55;;;;;;;27.27;46.02;92756.06;5047155;28;20132;-80
2021/06/19 14:31:59;;;;;;;23.10;14.52;;;;;;;27.29;45.81;92750.31;5045987;28;20041;-79
2021/06/19 14:34:26;;;;;;;30.08;15.05;;;;;;;27.19;45.68;92752.56;5043276;28;20040;-80
2021/06/19 14:36:51;;;;;;;22.83;15.35;;;;;;;26.94;47.13;92752.56;5039413;28;20042;-82
2021/06/19 14:39:18;;;;;;;32.97;15.98;;;;;;;26.96;45.90;92738.78;5040113;28;20030;-79
2021/06/19 14:41:43;;;;;;;30.45;14.38;;;;;;;26.77;46.64;92738.00;5020888;28;20037;-78
2021/06/19 14:44:09;;;;;;;25.23;14.25;;;;;;;27.04;46.46;92742.22;5008207;28;20056;-80
2021/06/19 14:46:53;;;;;;;21.58;14.10;;;;;;;27.19;44.87;92735.69;5027588;28;20045;-80
2021/06/19 14:49:19;;;;;;;22.13;14.82;;;;;;;27.17;45.73;92730.69;5010668;28;20061;-80
2021/06/19 14:51:45;;;;;;;26.25;14.40;;;;;;;26.78;46.81;92733.38;5049960;28;20029;-79
2021/06/19 14:54:32;;;;;;;23.77;14.65;;;;;;;26.62;48.15;92724.94;5027035;28;20029;-79
2021/06/19 14:56:58;;;;;;;24.42;14.98;;;;;;;26.19;48.91;92725.56;5028663;28;20029;-78
2021/06/19 14:59:23;;;;;;;35.25;16.38;;;;;;;26.31;48.70;92730.56;5040475;28;20044;-79
2021/06/19 15:05:18;;;;;;;30.25;16.23;;;;;;;26.29;49.00;92726.72;5044609;28;20037;-78
2021/06/19 15:07:44;;;;;;;39.00;15.85;;;;;;;26.07;48.37;92728.56;5043328;28;20350;-80
2021/06/19 15:10:12;;;;;;;26.70;15.60;;;;;;;26.10;49.02;92738.53;5043803;28;20116;-79
2021/06/19 15:12:38;;;;;;;29.15;15.95;;;;;;;26.29;49.37;92738.22;5050590;28;20032;-80
2021/06/19 15:15:06;;;;;;;27.05;15.88;;;;;;;26.35;49.31;92739.41;5043182;28;20033;-79
2021/06/19 15:17:35;;;;;;;27.77;15.88;;;;;;;26.71;48.81;92744.88;5037103;28;20029;-78
2021/06/19 15:20:02;;;;;;;31.00;17.00;;;;;;;26.87;48.08;92741.06;5051420;28;20093;-79
2021/06/19 15:22:27;;;;;;;28.17;15.40;;;;;;;26.77;48.78;92729.13;5034081;28;20412;-78
2021/06/19 15:24:53;;;;;;;35.08;16.90;;;;;;;26.51;49.60;92724.88;5042280;28;20036;-78
2021/06/19 15:27:19;;;;;;;27.38;16.08;;;;;;;26.33;50.54;92714.84;5043450;28;20057;-79
2021/06/19 15:29:45;;;;;;;25.02;16.77;;;;;;;26.52;48.83;92715.66;5050444;28;20025;-79
2021/06/19 15:32:10;;;;;;;29.38;16.90;;;;;;;26.18;48.51;92705.22;5050041;28;20072;-79
2021/06/19 15:34:37;;;;;;;32.05;15.82;;;;;;;26.53;48.72;92701.09;5049715;28;20064;-79
2021/06/19 15:37:03;;;;;;;25.98;15.93;;;;;;;26.74;48.04;92701.16;5033296;28;20037;-79
2021/06/19 15:39:29;;;;;;;25.58;15.63;;;;;;;27.02;48.05;92694.25;5048688;28;20743;-79
2021/06/19 15:41:55;;;;;;;32.90;16.48;;;;;;;27.27;47.68;92688.09;5034839;28;20494;-79